createdAt,value
2023-05-07T00:00:38.973Z,76.60
2023-05-07T00:03:41.564Z,76.50
2023-05-07T00:06:43.926Z,76.60
2023-05-07T00:09:46.221Z,76.60
2023-05-07T00:12:48.630Z,76.60
2023-05-07T00:15:50.952Z,76.70
2023-05-07T00:18:53.932Z,76.60
2023-05-07T00:21:57.066Z,76.70
2023-05-07T00:24:59.861Z,76.60
2023-05-07T00:28:05.012Z,76.60
2023-05-07T00:31:07.236Z,76.60
2023-05-07T00:34:09.654Z,76.50
2023-05-07T00:37:13.126Z,76.60
2023-05-07T00:40:15.663Z,76.50
2023-05-07T00:43:18.282Z,76.60
2023-05-07T00:46:22.595Z,76.60
2023-05-07T00:49:33.796Z,76.60
2023-05-07T00:52:36.097Z,76.60
2023-05-07T00:55:38.983Z,76.70
2023-05-07T00:58:42.024Z,76.50
2023-05-07T01:01:44.391Z,76.60
2023-05-07T01:04:46.856Z,76.70
2023-05-07T01:07:52.137Z,76.60
2023-05-07T01:10:56.050Z,76.60
2023-05-07T01:14:00.484Z,76.60
2023-05-07T01:17:02.984Z,76.60
2023-05-07T01:20:06.935Z,76.70
2023-05-07T01:23:12.118Z,76.70
2023-05-07T01:26:15.048Z,76.70
2023-05-07T01:29:20.882Z,76.70
2023-05-07T01:32:41.818Z,76.70
2023-05-07T01:35:48.604Z,76.70
2023-05-07T01:38:51.353Z,76.70
2023-05-07T01:41:56.706Z,76.70
2023-05-07T01:45:00.243Z,76.70
2023-05-07T01:48:04.238Z,76.80
2023-05-07T01:51:07.385Z,76.70
2023-05-07T01:54:09.766Z,76.70
2023-05-07T01:57:12.278Z,76.70
2023-05-07T02:00:14.965Z,76.80
2023-05-07T02:03:20.908Z,76.90
2023-05-07T02:06:37.422Z,76.90
2023-05-07T02:09:41.708Z,76.90
2023-05-07T02:12:44.460Z,76.90
2023-05-07T02:15:50.482Z,76.90
2023-05-07T02:18:53.463Z,76.90
2023-05-07T02:21:56.606Z,76.90
2023-05-07T02:24:58.897Z,76.90
2023-05-07T02:28:01.133Z,76.80
2023-05-07T02:31:29.997Z,76.90
2023-05-07T02:34:32.307Z,76.90
2023-05-07T02:37:34.602Z,76.90
2023-05-07T02:40:39.928Z,76.90
2023-05-07T02:43:42.149Z,76.90
2023-05-07T02:46:45.500Z,76.90
2023-05-07T02:49:48.981Z,76.90
2023-05-07T02:52:51.334Z,76.90
2023-05-07T02:56:03.009Z,77.00
2023-05-07T02:59:05.232Z,77.00
2023-05-07T03:02:11.960Z,77.00
2023-05-07T03:05:15.565Z,77.00
2023-05-07T03:08:18.836Z,77.00
2023-05-07T03:11:21.283Z,77.00
2023-05-07T03:14:23.538Z,77.00
2023-05-07T03:17:25.989Z,77.10
2023-05-07T03:20:28.308Z,77.00
2023-05-07T03:23:30.948Z,77.10
2023-05-07T03:26:33.223Z,77.10
2023-05-07T03:29:36.284Z,77.10
2023-05-07T03:32:38.821Z,77.10
2023-05-07T03:35:44.450Z,77.10
2023-05-07T03:38:50.539Z,77.10
2023-05-07T03:41:56.151Z,77.20
2023-05-07T03:44:58.508Z,77.20
2023-05-07T03:48:00.995Z,77.30
2023-05-07T03:51:03.452Z,77.30
2023-05-07T03:54:09.076Z,77.40
2023-05-07T03:57:12.544Z,77.40
2023-05-07T04:00:15.765Z,77.40
2023-05-07T04:03:24.043Z,77.40
2023-05-07T04:06:26.784Z,78.10
2023-05-07T04:09:29.289Z,77.50
2023-05-07T04:12:33.123Z,77.50
2023-05-07T04:15:37.062Z,77.60
2023-05-07T04:18:42.877Z,77.60
2023-05-07T04:21:45.953Z,78.30
2023-05-07T04:24:48.298Z,77.60
2023-05-07T04:27:51.884Z,77.60
2023-05-07T04:30:54.698Z,77.60
2023-05-07T04:33:57.908Z,77.60
2023-05-07T04:37:00.944Z,77.70
2023-05-07T04:40:04.272Z,77.80
2023-05-07T04:43:08.660Z,77.90
2023-05-07T04:46:16.652Z,77.90
2023-05-07T04:49:19.539Z,78.00
2023-05-07T04:52:21.943Z,77.90
2023-05-07T04:55:24.490Z,78.00
2023-05-07T04:58:27.032Z,78.00
2023-05-07T05:01:29.524Z,78.00
2023-05-07T05:04:32.093Z,78.00
2023-05-07T05:07:34.792Z,78.30
2023-05-07T05:10:37.618Z,78.20
2023-05-07T05:13:41.480Z,78.30
2023-05-07T05:16:52.418Z,78.30
2023-05-07T05:19:55.307Z,78.30
2023-05-07T05:22:57.689Z,78.40
2023-05-07T05:26:00.308Z,78.40
2023-05-07T05:29:05.828Z,78.50
2023-05-07T05:32:08.536Z,78.60
2023-05-07T05:35:11.031Z,78.50
2023-05-07T05:38:15.055Z,78.50
2023-05-07T05:41:17.590Z,78.60
2023-05-07T05:44:20.500Z,78.60
2023-05-07T05:47:24.002Z,78.70
2023-05-07T05:50:29.259Z,78.80
2023-05-07T05:53:31.642Z,78.70
2023-05-07T05:56:34.675Z,78.80
2023-05-07T05:59:37.864Z,78.90
2023-05-07T06:02:40.320Z,78.80
2023-05-07T06:05:43.446Z,78.80
2023-05-07T06:08:46.150Z,78.80
2023-05-07T06:11:52.577Z,78.80
2023-05-07T06:14:55.144Z,78.80
2023-05-07T06:17:58.641Z,78.80
2023-05-07T06:21:01.135Z,78.80
2023-05-07T06:24:07.185Z,79.50
2023-05-07T06:27:10.004Z,78.80
2023-05-07T06:30:13.520Z,78.90
2023-05-07T06:33:16.098Z,79.00
2023-05-07T06:36:18.803Z,79.00
2023-05-07T06:39:22.302Z,79.00
2023-05-07T06:42:24.567Z,79.10
2023-05-07T06:45:32.571Z,79.20
2023-05-07T06:48:35.826Z,79.10
2023-05-07T06:51:41.312Z,79.10
2023-05-07T06:54:43.948Z,79.10
2023-05-07T06:57:47.513Z,79.00
2023-05-07T07:00:51.281Z,79.80
2023-05-07T07:03:53.648Z,79.00
2023-05-07T07:06:58.148Z,79.10
2023-05-07T07:10:00.529Z,79.70
2023-05-07T07:13:04.877Z,79.00
2023-05-07T07:16:07.692Z,79.10
2023-05-07T07:19:10.164Z,79.20
2023-05-07T07:22:13.040Z,79.20
2023-05-07T07:25:15.491Z,79.20
2023-05-07T07:28:18.898Z,79.20
2023-05-07T07:31:21.489Z,79.20
2023-05-07T07:34:25.948Z,79.90
2023-05-07T07:37:28.726Z,79.30
2023-05-07T07:40:31.320Z,79.10
2023-05-07T07:43:33.865Z,79.10
2023-05-07T07:46:36.479Z,79.30
2023-05-07T07:49:39.271Z,79.10
2023-05-07T07:52:44.047Z,79.80
2023-05-07T07:55:48.203Z,79.00
2023-05-07T07:58:53.592Z,79.00
2023-05-07T08:01:56.903Z,78.90
2023-05-07T08:05:01.416Z,79.00
2023-05-07T08:08:03.810Z,79.00
2023-05-07T08:11:09.231Z,79.10
2023-05-07T08:14:12.922Z,79.00
2023-05-07T08:17:17.184Z,79.00
2023-05-07T08:20:20.762Z,79.10
2023-05-07T08:23:23.607Z,79.20
2023-05-07T08:26:26.534Z,79.30
2023-05-07T08:29:29.367Z,79.20
2023-05-07T08:32:31.951Z,79.20
2023-05-07T08:35:34.287Z,79.30
2023-05-07T08:38:37.080Z,79.30
2023-05-07T08:41:39.742Z,79.30
2023-05-07T08:44:45.213Z,79.20
2023-05-07T08:47:59.741Z,79.10
2023-05-07T08:51:07.095Z,79.20
2023-05-07T08:54:12.055Z,79.20
2023-05-07T08:57:14.461Z,79.20
2023-05-07T09:00:17.477Z,78.90
2023-05-07T09:03:23.233Z,79.00
2023-05-07T09:06:28.237Z,79.10
2023-05-07T09:09:31.194Z,78.90
2023-05-07T09:12:33.781Z,78.90
2023-05-07T09:15:36.525Z,78.80
2023-05-07T09:18:43.049Z,78.70
2023-05-07T09:21:46.997Z,78.70
2023-05-07T09:24:51.787Z,78.60
2023-05-07T09:27:57.878Z,78.60
2023-05-07T09:31:00.371Z,78.50
2023-05-07T09:34:02.864Z,78.50
2023-05-07T09:37:08.438Z,78.50
2023-05-07T09:40:25.770Z,78.50
2023-05-07T09:43:37.080Z,78.50
2023-05-07T09:46:45.084Z,78.50
2023-05-07T09:49:59.312Z,78.50
2023-05-07T09:53:03.208Z,78.50
2023-05-07T09:56:06.847Z,78.50
2023-05-07T09:59:11.666Z,78.50
2023-05-07T10:02:16.873Z,78.50
2023-05-07T10:05:27.371Z,78.40
2023-05-07T10:08:32.626Z,78.30
2023-05-07T10:11:37.881Z,78.90
2023-05-07T10:14:41.653Z,78.20
2023-05-07T10:17:46.178Z,78.30
2023-05-07T10:20:52.368Z,78.20
2023-05-07T10:23:58.418Z,78.00
2023-05-07T10:27:04.089Z,78.00
2023-05-07T10:30:12.556Z,78.00
2023-05-07T10:33:20.044Z,78.00
2023-05-07T10:36:24.885Z,77.90
2023-05-07T10:39:29.126Z,78.00
2023-05-07T10:42:31.426Z,77.80
2023-05-07T10:45:34.552Z,77.80
2023-05-07T10:49:09.665Z,77.70
2023-05-07T10:52:24.547Z,77.70
2023-05-07T10:55:33.633Z,77.70
2023-05-07T10:58:44.054Z,77.70
2023-05-07T11:01:59.605Z,77.60
2023-05-07T11:05:30.110Z,77.60
2023-05-07T11:08:53.865Z,77.60
2023-05-07T11:11:59.359Z,77.60
2023-05-07T11:15:17.177Z,77.40
2023-05-07T11:18:19.912Z,77.50
2023-05-07T11:21:34.559Z,78.00
2023-05-07T11:24:44.868Z,77.30
2023-05-07T11:27:49.530Z,77.40
2023-05-07T11:30:52.956Z,77.20
2023-05-07T11:33:56.939Z,77.30
2023-05-07T11:37:00.105Z,77.10
2023-05-07T11:40:24.204Z,77.20
2023-05-07T11:43:26.478Z,77.00
2023-05-07T11:46:29.937Z,77.00
2023-05-07T11:49:32.357Z,77.00
2023-05-07T11:52:35.528Z,77.00
2023-05-07T11:55:37.823Z,76.80
2023-05-07T11:58:40.915Z,76.80
2023-05-07T12:01:47.558Z,76.80
2023-05-07T12:04:50.096Z,76.80
2023-05-07T12:08:00.254Z,76.80
2023-05-07T12:11:02.380Z,76.80
2023-05-07T12:17:11.032Z,76.60
2023-05-07T12:20:14.168Z,76.70
2023-05-07T12:23:16.852Z,76.70
2023-05-07T12:26:21.992Z,76.70
2023-05-07T12:29:25.968Z,76.70
2023-05-07T12:32:28.560Z,76.50
2023-05-07T12:35:32.579Z,76.60
2023-05-07T12:38:39.662Z,76.50
2023-05-07T12:41:59.911Z,76.50
2023-05-07T12:45:08.889Z,76.60
2023-05-07T12:48:12.048Z,76.40
2023-05-07T12:51:16.294Z,76.50
2023-05-07T12:54:36.596Z,76.40
2023-05-07T12:57:52.651Z,76.40
2023-05-07T13:01:00.442Z,76.30
2023-05-07T13:04:04.911Z,76.20
2023-05-07T13:07:07.324Z,76.10
2023-05-07T13:10:10.852Z,76.20
2023-05-07T13:13:13.124Z,76.10
2023-05-07T13:16:15.704Z,76.10
2023-05-07T13:19:18.751Z,76.00
2023-05-07T13:22:21.163Z,76.00
2023-05-07T13:25:23.448Z,76.00
2023-05-07T13:28:27.000Z,75.90
2023-05-07T13:31:29.299Z,75.90
2023-05-07T13:34:31.876Z,75.90
2023-05-07T13:37:34.172Z,76.00
2023-05-07T13:40:36.502Z,76.00
2023-05-07T13:43:38.769Z,76.00
2023-05-07T13:46:41.228Z,76.00
2023-05-07T13:49:43.622Z,76.00
2023-05-07T13:52:51.951Z,75.90
2023-05-07T13:55:54.157Z,75.90
2023-05-07T13:59:00.596Z,75.90
2023-05-07T14:02:03.526Z,75.90
2023-05-07T14:05:06.506Z,75.90
2023-05-07T14:08:09.177Z,75.90
2023-05-07T14:11:11.572Z,75.90
2023-05-07T14:14:13.925Z,75.80
2023-05-07T14:17:16.196Z,75.90
2023-05-07T14:20:18.706Z,75.80
2023-05-07T14:23:23.327Z,75.80
2023-05-07T14:26:25.587Z,75.80
2023-05-07T14:29:27.800Z,75.80
2023-05-07T14:32:30.197Z,75.80
2023-05-07T14:35:32.546Z,75.70
2023-05-07T14:38:34.901Z,75.70
2023-05-07T14:41:37.157Z,75.70
2023-05-07T14:44:41.700Z,75.60
2023-05-07T14:47:44.016Z,75.70
2023-05-07T14:50:49.586Z,75.50
2023-05-07T14:53:52.326Z,75.70
2023-05-07T14:57:15.001Z,75.60
2023-05-07T15:00:17.489Z,75.50
2023-05-07T15:03:24.516Z,75.50
2023-05-07T15:06:28.220Z,75.50
2023-05-07T15:09:30.977Z,75.40
2023-05-07T15:12:33.339Z,75.50
2023-05-07T15:15:35.855Z,75.40
2023-05-07T15:18:38.688Z,75.40
2023-05-07T15:21:41.095Z,75.30
2023-05-07T15:24:43.378Z,75.30
2023-05-07T15:27:45.810Z,75.20
2023-05-07T15:30:48.095Z,75.30
2023-05-07T15:33:53.064Z,75.30
2023-05-07T15:36:57.925Z,75.20
2023-05-07T15:40:00.292Z,75.20
2023-05-07T15:43:03.771Z,75.20
2023-05-07T15:46:06.682Z,75.10
2023-05-07T15:49:09.103Z,75.10
2023-05-07T15:52:12.076Z,75.10
2023-05-07T15:55:15.202Z,75.10
2023-05-07T15:58:20.533Z,75.10
2023-05-07T16:01:25.370Z,75.10
2023-05-07T16:04:28.508Z,75.10
2023-05-07T16:07:30.855Z,75.10
2023-05-07T16:10:33.172Z,75.00
2023-05-07T16:13:36.687Z,75.00
2023-05-07T16:16:41.131Z,75.00
2023-05-07T16:19:43.523Z,74.90
2023-05-07T16:22:46.631Z,74.90
2023-05-07T16:25:50.292Z,75.00
2023-05-07T16:28:52.556Z,74.90
2023-05-07T16:31:55.044Z,74.90
2023-05-07T16:34:57.307Z,75.50
2023-05-07T16:37:59.607Z,74.80
2023-05-07T16:41:01.972Z,74.70
2023-05-07T16:44:04.572Z,74.80
2023-05-07T16:47:06.878Z,74.70
2023-05-07T16:50:09.570Z,74.80
2023-05-07T16:53:12.345Z,74.70
2023-05-07T16:56:14.565Z,74.80
2023-05-07T16:59:17.557Z,74.70
2023-05-07T17:02:20.683Z,74.00
2023-05-07T17:05:22.975Z,73.90
2023-05-07T17:08:25.304Z,74.10
2023-05-07T17:11:31.291Z,74.20
2023-05-07T17:14:33.629Z,74.30
2023-05-07T17:17:38.903Z,74.20
2023-05-07T17:20:41.329Z,74.20
2023-05-07T17:23:43.553Z,74.20
2023-05-07T17:26:47.648Z,74.20
2023-05-07T17:29:50.025Z,74.20
2023-05-07T17:32:52.362Z,74.20
2023-05-07T17:35:55.300Z,74.30
2023-05-07T17:38:57.632Z,74.40
2023-05-07T17:41:59.961Z,74.40
2023-05-07T17:45:02.326Z,74.60
2023-05-07T17:48:05.955Z,74.70
2023-05-07T17:51:08.650Z,74.80
2023-05-07T17:54:11.325Z,74.80
2023-05-07T17:57:13.846Z,74.80
2023-05-07T18:00:16.587Z,74.80
2023-05-07T18:03:18.910Z,74.80
2023-05-07T18:06:23.334Z,74.70
2023-05-07T18:09:25.639Z,74.50
2023-05-07T18:12:28.309Z,74.50
2023-05-07T18:15:30.648Z,74.70
2023-05-07T18:18:35.466Z,74.50
2023-05-07T18:21:37.992Z,74.60
2023-05-07T18:24:40.238Z,74.70
2023-05-07T18:27:42.528Z,74.70
2023-05-07T18:30:45.027Z,74.80
2023-05-07T18:33:47.307Z,74.70
2023-05-07T18:36:49.820Z,74.80
2023-05-07T18:39:52.148Z,74.80
2023-05-07T18:42:54.519Z,74.80
2023-05-07T18:45:56.855Z,74.80
2023-05-07T18:48:59.077Z,74.70
2023-05-07T18:52:01.584Z,74.90
2023-05-07T18:55:04.422Z,74.80
2023-05-07T18:58:06.654Z,74.90
2023-05-07T19:01:09.221Z,74.90
2023-05-07T19:04:11.683Z,74.90
2023-05-07T19:07:14.648Z,74.90
2023-05-07T19:10:17.610Z,74.90
2023-05-07T19:13:20.039Z,74.90
2023-05-07T19:16:22.577Z,74.90
2023-05-07T19:19:25.105Z,75.00
2023-05-07T19:22:27.401Z,74.90
2023-05-07T19:25:29.604Z,74.90
2023-05-07T19:28:31.788Z,75.40
2023-05-07T19:31:34.379Z,75.00
2023-05-07T19:34:36.580Z,74.90
2023-05-07T19:37:39.184Z,75.00
2023-05-07T19:40:41.675Z,75.80
2023-05-07T19:43:43.992Z,75.00
2023-05-07T19:46:48.010Z,75.00
2023-05-07T19:49:50.243Z,75.10
2023-05-07T19:52:52.788Z,75.10
2023-05-07T19:56:07.034Z,75.10
2023-05-07T19:59:09.320Z,75.10
2023-05-07T20:02:12.436Z,75.00
2023-05-07T20:05:14.982Z,75.10
2023-05-07T20:08:17.415Z,75.20
2023-05-07T20:11:20.630Z,75.20
2023-05-07T20:14:23.172Z,75.20
2023-05-07T20:17:25.674Z,75.20
2023-05-07T20:20:28.104Z,75.20
2023-05-07T20:23:30.408Z,75.30
2023-05-07T20:26:32.727Z,75.30
2023-05-07T20:29:35.041Z,75.30
2023-05-07T20:32:37.395Z,75.30
2023-05-07T20:35:39.959Z,75.20
2023-05-07T20:38:42.183Z,75.20
2023-05-07T20:41:44.728Z,75.20
2023-05-07T20:44:46.987Z,75.10
2023-05-07T20:47:49.324Z,75.10
2023-05-07T20:50:51.720Z,75.10
2023-05-07T20:53:53.945Z,75.00
2023-05-07T20:56:57.177Z,74.90
2023-05-07T20:59:59.506Z,75.00
2023-05-07T21:03:02.916Z,75.00
2023-05-07T21:06:05.257Z,74.90
2023-05-07T21:09:08.098Z,74.90
2023-05-07T21:12:10.331Z,74.90
2023-05-07T21:15:12.555Z,74.90
2023-05-07T21:18:15.090Z,74.90
2023-05-07T21:21:17.461Z,74.80
2023-05-07T21:24:19.753Z,74.80
2023-05-07T21:27:22.034Z,75.50
2023-05-07T21:30:24.494Z,74.70
2023-05-07T21:33:26.728Z,74.70
2023-05-07T21:36:29.402Z,74.70
2023-05-07T21:39:31.721Z,74.80
2023-05-07T21:42:34.121Z,74.90
2023-05-07T21:45:36.417Z,74.80
2023-05-07T21:48:39.112Z,74.90
2023-05-07T21:51:41.604Z,75.00
2023-05-07T21:54:44.296Z,75.10
2023-05-07T21:58:01.259Z,75.10
2023-05-07T22:01:07.647Z,75.20
2023-05-07T22:04:10.084Z,75.40
2023-05-07T22:07:12.383Z,75.50
2023-05-07T22:10:14.852Z,75.50
2023-05-07T22:13:17.578Z,75.70
2023-05-07T22:16:19.979Z,75.80
2023-05-07T22:19:22.293Z,75.70
2023-05-07T22:22:24.570Z,75.90
2023-05-07T22:25:27.016Z,75.80
2023-05-07T22:28:29.274Z,75.80
2023-05-07T22:31:31.663Z,76.00
2023-05-07T22:34:33.961Z,76.10
2023-05-07T22:37:36.291Z,76.30
2023-05-07T22:40:38.464Z,76.60
2023-05-07T22:43:40.920Z,76.60
2023-05-07T22:46:43.235Z,76.60
2023-05-07T22:49:45.960Z,76.70
2023-05-07T22:52:49.355Z,76.80
2023-05-07T22:55:51.828Z,76.90
2023-05-07T22:58:54.041Z,76.90
2023-05-07T23:01:56.392Z,76.90
2023-05-07T23:05:01.977Z,77.00
2023-05-07T23:08:04.779Z,77.00
2023-05-07T23:11:07.978Z,77.10
2023-05-07T23:14:10.232Z,77.20
2023-05-07T23:17:12.499Z,77.10
2023-05-07T23:20:15.344Z,77.10
2023-05-07T23:23:18.012Z,77.10
2023-05-07T23:26:20.447Z,77.10
2023-05-07T23:29:22.652Z,77.50
2023-05-07T23:32:25.014Z,77.40
2023-05-07T23:35:27.282Z,77.40
2023-05-07T23:38:29.550Z,77.40
2023-05-07T23:41:31.787Z,77.50
2023-05-07T23:44:34.111Z,77.40
2023-05-07T23:47:36.392Z,77.50
2023-05-07T23:50:38.566Z,77.60
2023-05-07T23:53:40.927Z,77.70
2023-05-07T23:56:43.361Z,77.80
2023-05-07T23:59:45.681Z,77.80
